< < Back
Terminal Aerodrome Forecast


Current Version              Previous Versions:   1  2  3  4  5  6  7  8  9  

Terminal Aerodrome Forecast

363
FTUS44 KMOB 280525
TAFPNS
TAF
KPNS 280525Z 2806/2906 35008KT P6SM SKC
     FM281500 36006KT P6SM SCT250=

Latest METAR

112
SAUS70 KWBC 290700 RRA
MTRPNS
METAR KPNS 290653Z AUTO 04004KT 10SM CLR 08/M01 A3029 RMK AO2 SLP260
T00831006


USA.gov is the U.S. government's official web portal to all federal, state and local government web resources and services.